Time;durP1;ratioP1;P1;durP2;ratioP2;P2;SDS_P1;SDS_P2;PMS_P1;PMS_P2;Temp;Humidity;BMP_temperature;BMP_pressure;BME280_temperature;BME280_humidity;BME280_pressure;Samples;Min_cycle;Max_cycle;Signal;HPM_P1;HPM_P2
2020/12/12 00:00:14;;;;;;;1.20;0.52;;;20.70;39.70;;;;;;5048467;28;20036;-47
2020/12/12 00:02:40;;;;;;;0.85;0.40;;;20.70;39.70;;;;;;5047300;28;20028;-46
2020/12/12 00:05:06;;;;;;;1.00;0.40;;;20.70;39.70;;;;;;5046188;28;20085;-47
2020/12/12 00:07:32;;;;;;;1.65;0.50;;;20.70;39.80;;;;;;5041663;28;20527;-47
2020/12/12 00:09:57;;;;;;;0.82;0.55;;;20.70;39.70;;;;;;5046990;28;20037;-47
2020/12/12 00:12:23;;;;;;;1.25;0.60;;;20.70;39.70;;;;;;5048658;28;20033;-47
2020/12/12 00:14:48;;;;;;;1.25;0.40;;;20.70;39.70;;;;;;5048255;28;20040;-47
2020/12/12 00:17:14;;;;;;;0.70;0.28;;;20.70;39.70;;;;;;5044234;28;20029;-46
2020/12/12 00:19:39;;;;;;;1.65;0.30;;;20.70;39.70;;;;;;5046390;28;20036;-47
2020/12/12 00:22:05;;;;;;;0.88;0.32;;;20.70;39.70;;;;;;5047364;28;20112;-46
2020/12/12 00:24:30;;;;;;;0.85;0.30;;;20.70;39.80;;;;;;5048203;28;20387;-47
2020/12/12 00:26:57;;;;;;;2.10;0.63;;;20.60;39.70;;;;;;5049828;28;20533;-47
2020/12/12 00:29:23;;;;;;;1.17;0.40;;;20.60;39.70;;;;;;5046243;28;20021;-47
2020/12/12 00:31:57;;;;;;;0.63;0.50;;;20.60;39.70;;;;;;5050081;28;20541;-46
2020/12/12 00:34:24;;;;;;;1.08;0.40;;;20.60;39.70;;;;;;5044608;28;20025;-47
2020/12/12 00:36:49;;;;;;;0.80;0.30;;;20.60;39.70;;;;;;5050244;28;20460;-47
2020/12/12 00:39:16;;;;;;;1.33;0.30;;;20.60;39.70;;;;;;5041902;28;20033;-48
2020/12/12 00:41:42;;;;;;;0.75;0.30;;;20.50;39.60;;;;;;5048925;28;20032;-46
2020/12/12 00:44:08;;;;;;;0.90;0.30;;;20.50;39.70;;;;;;5037757;28;20041;-47
2020/12/12 00:46:34;;;;;;;0.63;0.20;;;20.50;39.70;;;;;;5049799;28;20445;-46
2020/12/12 00:49:00;;;;;;;1.40;0.38;;;20.50;39.70;;;;;;5042737;28;20401;-46
2020/12/12 00:51:26;;;;;;;2.35;0.93;;;20.50;39.70;;;;;;5046628;28;20029;-47
2020/12/12 00:53:52;;;;;;;0.98;0.60;;;20.50;39.70;;;;;;5048120;28;20032;-47
2020/12/12 00:56:18;;;;;;;1.38;0.52;;;20.50;39.70;;;;;;5048045;28;20080;-47
2020/12/12 00:58:44;;;;;;;1.00;0.30;;;20.50;39.70;;;;;;5050162;28;20024;-46
2020/12/12 01:01:10;;;;;;;0.70;0.40;;;20.50;39.70;;;;;;5049391;28;20025;-47
2020/12/12 01:03:37;;;;;;;0.93;0.30;;;20.40;39.70;;;;;;5049284;28;20033;-45
2020/12/12 01:06:02;;;;;;;1.27;0.30;;;20.40;39.60;;;;;;5036195;28;20112;-48
2020/12/12 01:08:28;;;;;;;0.70;0.40;;;20.40;39.70;;;;;;5040655;28;20068;-47
2020/12/12 01:10:54;;;;;;;1.27;0.32;;;20.40;39.60;;;;;;5049178;28;20076;-46
2020/12/12 01:13:19;;;;;;;1.40;0.40;;;20.40;39.70;;;;;;5048976;28;20029;-47
2020/12/12 01:15:45;;;;;;;1.15;0.30;;;20.40;39.60;;;;;;5049462;28;20082;-47
2020/12/12 01:18:11;;;;;;;1.25;0.40;;;20.40;39.70;;;;;;5034253;28;20099;-47
2020/12/12 01:20:37;;;;;;;0.70;0.28;;;20.40;39.70;;;;;;5047954;28;20163;-47
2020/12/12 01:23:02;;;;;;;1.00;0.40;;;20.40;39.70;;;;;;5042882;28;20056;-46
2020/12/12 01:25:28;;;;;;;3.10;0.22;;;20.30;39.70;;;;;;5048736;28;20579;-47
2020/12/12 01:27:54;;;;;;;0.63;0.20;;;20.30;39.70;;;;;;5053478;28;20508;-47
2020/12/12 01:30:20;;;;;;;1.15;0.47;;;20.30;39.70;;;;;;5029977;28;20546;-46
2020/12/12 01:32:45;;;;;;;0.70;0.20;;;20.30;39.70;;;;;;5049387;28;20036;-46
2020/12/12 01:35:11;;;;;;;1.00;0.20;;;20.30;39.70;;;;;;5053229;28;20036;-46
2020/12/12 01:37:36;;;;;;;2.75;0.43;;;20.30;39.70;;;;;;5031116;28;20033;-47
2020/12/12 01:40:03;;;;;;;0.63;0.32;;;20.30;39.70;;;;;;5053013;28;20707;-46
2020/12/12 01:42:32;;;;;;;0.63;0.30;;;20.30;39.70;;;;;;5050433;28;20638;-47
2020/12/12 01:44:58;;;;;;;1.33;0.40;;;20.30;39.70;;;;;;5053277;28;20033;-47
2020/12/12 01:47:25;;;;;;;0.65;0.22;;;20.30;39.70;;;;;;5051759;28;20036;-47
2020/12/12 01:49:52;;;;;;;1.77;0.28;;;20.20;39.70;;;;;;5051145;28;20029;-46
2020/12/12 01:52:17;;;;;;;0.98;0.40;;;20.20;39.80;;;;;;5050934;28;20037;-49
2020/12/12 01:54:47;;;;;;;0.60;0.40;;;20.20;39.60;;;;;;5051103;28;20107;-48
2020/12/12 01:57:17;;;;;;;0.98;0.40;;;20.20;39.70;;;;;;5052440;28;20032;-48
2020/12/12 01:59:42;;;;;;;0.60;0.30;;;20.20;39.70;;;;;;5041754;28;20040;-48
2020/12/12 02:02:11;;;;;;;0.88;0.20;;;20.20;39.80;;;;;;5050200;28;20025;-48
2020/12/12 02:04:38;;;;;;;0.70;0.30;;;20.20;39.80;;;;;;5051628;28;20541;-48
2020/12/12 02:07:03;;;;;;;0.65;0.30;;;20.20;39.80;;;;;;5048912;28;20083;-47
2020/12/12 02:09:29;;;;;;;1.38;0.50;;;20.10;39.70;;;;;;5051690;28;20033;-47
2020/12/12 02:11:56;;;;;;;0.70;0.20;;;20.10;39.70;;;;;;5051107;28;20064;-48
2020/12/12 02:14:22;;;;;;;1.25;0.40;;;20.10;39.70;;;;;;5051869;28;20036;-47
2020/12/12 02:16:55;;;;;;;0.50;0.20;;;20.10;39.80;;;;;;5051268;28;20038;-47
2020/12/12 02:19:21;;;;;;;1.27;0.30;;;20.10;39.80;;;;;;5044210;28;20037;-47
2020/12/12 02:21:54;;;;;;;1.10;0.20;;;20.10;39.70;;;;;;5052494;28;20098;-47
2020/12/12 02:24:20;;;;;;;0.98;0.28;;;20.10;39.80;;;;;;5050778;28;20040;-47
2020/12/12 02:26:46;;;;;;;2.25;0.40;;;20.10;39.70;;;;;;5048363;28;20108;-46
2020/12/12 02:29:12;;;;;;;1.77;0.40;;;20.10;39.70;;;;;;5044801;28;20399;-47
2020/12/12 02:31:38;;;;;;;0.60;0.30;;;20.10;39.80;;;;;;5049368;28;20449;-47
2020/12/12 02:34:05;;;;;;;0.57;0.30;;;20.10;39.80;;;;;;5052599;28;20037;-47
2020/12/12 02:36:38;;;;;;;0.68;0.20;;;20.10;39.80;;;;;;5050049;28;20045;-46
2020/12/12 02:39:05;;;;;;;0.50;0.20;;;20.10;39.80;;;;;;5049511;28;20029;-47
2020/12/12 02:41:31;;;;;;;0.95;0.40;;;20.10;39.80;;;;;;5046154;28;20041;-47
2020/12/12 02:43:56;;;;;;;1.15;0.40;;;20.00;39.80;;;;;;5047793;28;20025;-47
2020/12/12 02:46:22;;;;;;;2.00;0.50;;;20.00;39.80;;;;;;5050192;28;20045;-47
2020/12/12 02:48:49;;;;;;;1.10;0.30;;;20.00;39.80;;;;;;5046407;28;20367;-47
2020/12/12 02:51:15;;;;;;;0.90;0.40;;;20.00;39.70;;;;;;5047272;28;20025;-46
2020/12/12 02:53:43;;;;;;;0.68;0.28;;;20.00;39.80;;;;;;5043677;28;20049;-47
2020/12/12 02:56:09;;;;;;;2.03;0.60;;;20.00;39.70;;;;;;5051160;28;20029;-48
2020/12/12 02:58:34;;;;;;;0.50;0.20;;;20.00;39.70;;;;;;5050671;28;20033;-47
2020/12/12 03:01:00;;;;;;;0.98;0.20;;;20.00;39.80;;;;;;5044903;28;20088;-48
2020/12/12 03:03:25;;;;;;;0.50;0.20;;;20.00;39.80;;;;;;5052536;28;20036;-48
2020/12/12 03:05:51;;;;;;;1.27;0.20;;;20.00;39.70;;;;;;5052169;28;20045;-46
2020/12/12 03:08:17;;;;;;;1.23;0.25;;;19.90;39.80;;;;;;5055305;28;20098;-47
2020/12/12 03:10:42;;;;;;;0.45;0.20;;;19.90;39.80;;;;;;5048767;28;20037;-47
2020/12/12 03:13:08;;;;;;;1.13;0.20;;;19.90;39.80;;;;;;5042516;28;20033;-47
2020/12/12 03:15:33;;;;;;;1.10;0.30;;;19.90;39.80;;;;;;5047049;28;20033;-47
2020/12/12 03:18:00;;;;;;;1.05;0.20;;;19.90;39.70;;;;;;5050224;28;20028;-47
2020/12/12 03:20:25;;;;;;;0.70;0.20;;;19.90;39.70;;;;;;5050987;28;20422;-46
2020/12/12 03:22:51;;;;;;;0.57;0.20;;;19.90;39.70;;;;;;5046419;28;20651;-47
2020/12/12 03:25:16;;;;;;;0.60;0.20;;;19.90;39.80;;;;;;5048419;28;20032;-46
2020/12/12 03:27:42;;;;;;;1.15;0.20;;;19.90;39.80;;;;;;5049565;28;20047;-47
2020/12/12 03:30:07;;;;;;;0.60;0.20;;;19.90;39.90;;;;;;5050061;28;20375;-47
2020/12/12 03:32:33;;;;;;;0.43;0.20;;;19.90;39.80;;;;;;5048146;28;20033;-46
2020/12/12 03:34:58;;;;;;;2.10;0.30;;;19.90;39.80;;;;;;5051008;28;20112;-47
2020/12/12 03:37:24;;;;;;;0.50;0.20;;;19.80;39.70;;;;;;5045963;28;20047;-47
2020/12/12 03:39:50;;;;;;;0.50;0.20;;;19.90;39.90;;;;;;5061697;22;20053;-46
2020/12/12 03:42:16;;;;;;;0.52;0.20;;;19.80;39.80;;;;;;5017737;28;20531;-48
2020/12/12 03:44:41;;;;;;;0.73;0.22;;;19.80;39.70;;;;;;5014253;28;20457;-42
2020/12/12 03:47:07;;;;;;;2.60;0.20;;;19.90;39.80;;;;;;5022829;28;20033;-44
2020/12/12 03:49:33;;;;;;;0.60;0.20;;;19.80;39.70;;;;;;5020430;28;20084;-42
2020/12/12 03:51:59;;;;;;;0.70;0.20;;;19.80;39.80;;;;;;5023075;28;20017;-42
2020/12/12 03:54:26;;;;;;;0.65;0.20;;;19.80;39.80;;;;;;5028492;28;20510;-48
2020/12/12 03:56:53;;;;;;;2.17;0.20;;;19.80;39.90;;;;;;5025960;28;20056;-46
2020/12/12 03:59:18;;;;;;;0.55;0.30;;;19.80;39.90;;;;;;5011467;28;20051;-44
2020/12/12 04:01:44;;;;;;;0.85;0.10;;;19.80;40.00;;;;;;5018004;28;20080;-43
2020/12/12 04:04:10;;;;;;;1.10;0.20;;;19.80;39.90;;;;;;5025014;28;20064;-44
2020/12/12 04:06:35;;;;;;;0.63;0.20;;;19.70;39.90;;;;;;5019978;28;20514;-43
2020/12/12 04:09:01;;;;;;;0.57;0.20;;;19.70;39.80;;;;;;5029273;28;20494;-43
2020/12/12 04:11:27;;;;;;;0.50;0.17;;;19.80;39.90;;;;;;5022220;28;20036;-48
2020/12/12 04:13:52;;;;;;;1.02;0.20;;;19.70;39.90;;;;;;5027101;28;20465;-45
2020/12/12 04:16:18;;;;;;;0.82;0.20;;;19.70;39.90;;;;;;5025562;28;20025;-46
2020/12/12 04:18:44;;;;;;;1.17;0.20;;;19.70;39.90;;;;;;5026939;28;20483;-44
2020/12/12 04:21:09;;;;;;;0.60;0.20;;;19.70;39.80;;;;;;5024627;28;20113;-44
2020/12/12 04:23:35;;;;;;;0.73;0.17;;;19.70;39.90;;;;;;5031661;28;20052;-46
2020/12/12 04:26:02;;;;;;;0.82;0.30;;;19.70;39.90;;;;;;5024222;28;20033;-45
2020/12/12 04:28:27;;;;;;;0.40;0.10;;;19.70;39.80;;;;;;5024832;28;20399;-41
2020/12/12 04:30:53;;;;;;;0.43;0.10;;;19.70;39.80;;;;;;5023724;28;20026;-47
2020/12/12 04:33:19;;;;;;;0.60;0.20;;;19.70;39.90;;;;;;5017779;28;20057;-43
2020/12/12 04:35:44;;;;;;;0.45;0.30;;;19.70;39.80;;;;;;5027563;28;20064;-46
2020/12/12 04:38:10;;;;;;;0.43;0.10;;;19.70;39.90;;;;;;5023199;28;20076;-46
2020/12/12 04:40:35;;;;;;;0.40;0.17;;;19.70;39.90;;;;;;5026628;28;20059;-43
2020/12/12 04:43:02;;;;;;;0.85;0.20;;;19.70;39.90;;;;;;5028305;28;20029;-44
2020/12/12 04:45:30;;;;;;;0.50;0.30;;;19.60;39.90;;;;;;5026276;28;20076;-43
2020/12/12 04:47:56;;;;;;;0.45;0.20;;;19.70;39.90;;;;;;5024530;28;20025;-43
2020/12/12 04:50:28;;;;;;;0.40;0.20;;;19.60;40.00;;;;;;5024708;28;20518;-44
2020/12/12 04:52:56;;;;;;;0.52;0.20;;;19.60;39.90;;;;;;5004238;28;20061;-45
2020/12/12 04:55:23;;;;;;;0.93;0.20;;;19.60;39.90;;;;;;5026689;28;20108;-42
2020/12/12 04:57:51;;;;;;;0.52;0.20;;;19.60;40.40;;;;;;5022857;28;20068;-45
2020/12/12 05:00:16;;;;;;;0.65;0.20;;;19.60;39.90;;;;;;5025869;28;20387;-43
2020/12/12 05:02:42;;;;;;;0.50;0.10;;;19.70;39.90;;;;;;5027682;28;20083;-44
2020/12/12 05:05:07;;;;;;;0.40;0.20;;;19.60;39.90;;;;;;5003396;28;20029;-47
2020/12/12 05:07:34;;;;;;;0.47;0.13;;;19.60;40.00;;;;;;5013897;28;20033;-45
2020/12/12 05:10:00;;;;;;;0.50;0.22;;;19.60;39.90;;;;;;5027568;28;20511;-46
2020/12/12 05:12:26;;;;;;;0.65;0.10;;;19.60;39.90;;;;;;5026708;28;20112;-44
2020/12/12 05:14:52;;;;;;;0.40;0.10;;;19.60;40.10;;;;;;5026419;28;20145;-44
2020/12/12 05:17:21;;;;;;;0.57;0.28;;;19.60;40.00;;;;;;5022964;28;20037;-45
2020/12/12 05:19:50;;;;;;;0.50;0.20;;;19.60;39.90;;;;;;5019622;28;20018;-50
2020/12/12 05:22:17;;;;;;;0.63;0.30;;;19.60;40.00;;;;;;5024122;28;20050;-45
2020/12/12 05:24:43;;;;;;;1.00;0.30;;;19.60;39.80;;;;;;5026444;28;20026;-47
2020/12/12 05:27:10;;;;;;;1.75;0.20;;;19.60;40.00;;;;;;5026232;28;20104;-44
2020/12/12 05:29:36;;;;;;;0.80;0.20;;;19.60;40.00;;;;;;5026785;28;20037;-45
2020/12/12 05:32:02;;;;;;;0.40;0.13;;;19.50;39.90;;;;;;5013354;28;20041;-46
2020/12/12 05:34:28;;;;;;;0.43;0.15;;;19.60;39.90;;;;;;5025409;28;20092;-42
2020/12/12 05:36:54;;;;;;;0.40;0.17;;;19.60;39.90;;;;;;5025146;28;20022;-44
2020/12/12 05:39:20;;;;;;;0.20;0.10;;;19.50;40.00;;;;;;5019312;28;20026;-45
2020/12/12 05:41:47;;;;;;;1.58;0.20;;;19.50;40.00;;;;;;5017909;28;20033;-48
2020/12/12 05:44:17;;;;;;;0.40;0.15;;;19.50;40.00;;;;;;5023221;28;20030;-43
2020/12/12 05:46:44;;;;;;;0.65;0.20;;;19.50;40.00;;;;;;5023588;28;20034;-41
2020/12/12 05:49:09;;;;;;;0.60;0.20;;;19.50;40.00;;;;;;5026825;28;20029;-42
2020/12/12 05:51:36;;;;;;;0.50;0.20;;;19.50;40.00;;;;;;5021408;28;20041;-46
2020/12/12 05:54:02;;;;;;;0.60;0.20;;;19.50;39.90;;;;;;5023619;28;20030;-42
2020/12/12 05:56:30;;;;;;;0.32;0.10;;;19.50;40.00;;;;;;5027491;28;20401;-42
2020/12/12 05:58:56;;;;;;;0.80;0.20;;;19.50;40.00;;;;;;5024490;28;20052;-44
2020/12/12 06:01:26;;;;;;;0.50;0.10;;;19.60;40.30;;;;;;5025423;28;20026;-44
2020/12/12 06:03:58;;;;;;;0.57;0.20;;;19.50;39.90;;;;;;5027055;28;20048;-46
2020/12/12 06:06:25;;;;;;;0.52;0.30;;;19.50;40.00;;;;;;5024337;28;20033;-42
2020/12/12 06:09:00;;;;;;;0.43;0.20;;;19.50;39.90;;;;;;5025426;28;20414;-49
2020/12/12 06:11:28;;;;;;;0.63;0.13;;;19.50;40.00;;;;;;5024286;28;20048;-46
2020/12/12 06:13:58;;;;;;;0.57;0.20;;;19.50;40.00;;;;;;5028276;28;20033;-45
2020/12/12 06:16:26;;;;;;;0.45;0.15;;;19.50;40.00;;;;;;5028930;28;20029;-43
2020/12/12 06:19:13;;;;;;;0.38;0.20;;;19.50;40.00;;;;;;5026893;28;20033;-44
2020/12/12 06:21:47;;;;;;;0.20;0.10;;;19.50;39.90;;;;;;5032448;28;20061;-45
2020/12/12 06:24:15;;;;;;;0.47;0.10;;;19.50;39.90;;;;;;5030377;28;20037;-46
2020/12/12 06:26:47;;;;;;;0.60;0.20;;;19.40;39.90;;;;;;5006717;28;20029;-45
2020/12/12 06:29:14;;;;;;;0.50;0.20;;;19.50;40.00;;;;;;5030608;28;20041;-46
2020/12/12 06:31:41;;;;;;;0.40;0.10;;;19.40;40.00;;;;;;5029234;28;20041;-44
2020/12/12 06:34:06;;;;;;;0.25;0.08;;;19.50;40.00;;;;;;5028894;28;20580;-49
2020/12/12 06:36:33;;;;;;;0.98;0.20;;;19.40;40.00;;;;;;5029215;28;20033;-46
2020/12/12 06:39:15;;;;;;;0.35;0.20;;;19.40;40.00;;;;;;5026376;28;20037;-43
2020/12/12 06:41:41;;;;;;;0.40;0.20;;;19.40;40.10;;;;;;5023223;28;20153;-47
2020/12/12 06:44:07;;;;;;;0.30;0.20;;;19.40;40.10;;;;;;5028506;28;20538;-45
2020/12/12 06:46:53;;;;;;;0.90;0.20;;;19.40;40.00;;;;;;5029958;28;20049;-41
2020/12/12 06:49:21;;;;;;;0.35;0.20;;;19.40;40.00;;;;;;5028603;28;20041;-44
2020/12/12 06:51:48;;;;;;;0.50;0.10;;;19.40;40.00;;;;;;5027601;28;20037;-45
2020/12/12 06:54:13;;;;;;;0.70;0.20;;;19.40;40.00;;;;;;5027718;28;20029;-46
2020/12/12 06:56:39;;;;;;;0.50;0.20;;;19.40;40.10;;;;;;5023615;28;20041;-44
2020/12/12 06:59:23;;;;;;;0.47;0.28;;;19.40;40.10;;;;;;5029145;28;20041;-44
2020/12/12 07:01:56;;;;;;;0.70;0.30;;;19.30;40.00;;;;;;5024101;28;20037;-44
2020/12/12 07:04:38;;;;;;;0.38;0.10;;;19.40;40.00;;;;;;5021853;28;20091;-45
2020/12/12 07:07:06;;;;;;;0.40;0.20;;;19.30;40.00;;;;;;5026585;28;20107;-43
2020/12/12 07:09:33;;;;;;;0.73;0.17;;;19.30;40.00;;;;;;5028922;28;20048;-41
2020/12/12 07:11:59;;;;;;;0.80;0.30;;;19.40;40.00;;;;;;5026839;28;20627;-47
2020/12/12 07:14:25;;;;;;;0.93;0.52;;;19.30;39.90;;;;;;5027032;28;20160;-43
2020/12/12 07:16:56;;;;;;;0.68;0.40;;;19.30;40.00;;;;;;5029463;28;20331;-42
2020/12/12 07:19:38;;;;;;;1.35;0.30;;;19.30;40.00;;;;;;5021727;28;20044;-47
2020/12/12 07:22:07;;;;;;;1.00;0.30;;;19.30;40.20;;;;;;5024634;28;20095;-43
2020/12/12 07:24:34;;;;;;;1.30;0.65;;;19.30;40.00;;;;;;5027645;28;20048;-44
2020/12/12 07:27:00;;;;;;;1.45;0.47;;;19.30;40.10;;;;;;5028226;28;20033;-45
2020/12/12 07:29:27;;;;;;;0.80;0.30;;;19.30;40.00;;;;;;5027976;28;20032;-47
2020/12/12 07:31:53;;;;;;;0.73;0.40;;;19.30;40.10;;;;;;5025210;28;20029;-42
2020/12/12 07:34:20;;;;;;;1.10;0.52;;;19.30;40.20;;;;;;5028549;28;20510;-45
2020/12/12 07:37:02;;;;;;;0.93;0.40;;;19.30;40.20;;;;;;5027952;28;20486;-45
2020/12/12 07:39:33;;;;;;;2.33;0.63;;;19.30;40.00;;;;;;5026256;28;20155;-44
2020/12/12 07:42:01;;;;;;;1.58;0.80;;;19.30;40.10;;;;;;5026996;28;20037;-46
2020/12/12 07:44:31;;;;;;;1.25;0.70;;;19.30;40.10;;;;;;5027302;28;20033;-43
2020/12/12 07:47:03;;;;;;;1.05;0.93;;;19.30;40.20;;;;;;5010018;28;20350;-47
2020/12/12 07:49:30;;;;;;;1.50;0.82;;;19.30;40.10;;;;;;5026293;28;20052;-41
2020/12/12 07:52:07;;;;;;;1.50;1.33;;;19.30;40.10;;;;;;5028278;28;20040;-48
2020/12/12 07:54:52;;;;;;;1.45;1.08;;;19.30;40.10;;;;;;5021302;28;20064;-46
2020/12/12 07:57:17;;;;;;;1.60;1.25;;;19.30;40.10;;;;;;5027797;28;20042;-44
2020/12/12 07:59:43;;;;;;;1.75;1.38;;;19.30;40.20;;;;;;5028493;28;20151;-44
2020/12/12 08:02:11;;;;;;;2.35;1.27;;;19.30;40.30;;;;;;5022691;28;20063;-43
2020/12/12 08:04:37;;;;;;;1.70;1.30;;;19.30;40.40;;;;;;5026036;28;20537;-44
2020/12/12 08:07:20;;;;;;;1.65;1.10;;;19.20;40.60;;;;;;5024641;28;20033;-43
2020/12/12 08:09:51;;;;;;;1.52;1.15;;;19.20;40.90;;;;;;5023527;28;20106;-47
2020/12/12 08:12:29;;;;;;;3.08;1.30;;;19.20;41.00;;;;;;5021794;28;20038;-48
2020/12/12 08:14:56;;;;;;;1.70;1.10;;;19.20;40.90;;;;;;5020906;28;20025;-43
2020/12/12 08:17:27;;;;;;;2.22;1.30;;;19.20;40.90;;;;;;5020427;28;20045;-46
2020/12/12 08:19:52;;;;;;;1.65;1.15;;;19.20;41.00;;;;;;5010447;28;20030;-42
2020/12/12 08:22:20;;;;;;;1.40;1.25;;;19.20;41.00;;;;;;5030311;28;20037;-44
2020/12/12 08:24:47;;;;;;;1.63;1.10;;;19.20;40.80;;;;;;5024588;28;20387;-45
2020/12/12 08:27:15;;;;;;;2.90;0.88;;;19.20;40.90;;;;;;5028039;28;20060;-43
2020/12/12 08:29:51;;;;;;;1.42;1.17;;;19.20;40.80;;;;;;5026928;28;20033;-43
2020/12/12 08:32:34;;;;;;;3.92;1.25;;;19.20;40.80;;;;;;5023985;28;20029;-44
2020/12/12 08:35:15;;;;;;;1.75;0.88;;;19.20;40.80;;;;;;5024966;28;20022;-48
2020/12/12 08:37:53;;;;;;;2.03;1.40;;;19.20;40.70;;;;;;5027955;28;20625;-44
2020/12/12 08:40:19;;;;;;;1.75;1.60;;;19.30;40.50;;;;;;5025089;28;20033;-45
2020/12/12 08:43:05;;;;;;;2.88;2.17;;;19.20;40.40;;;;;;5007746;28;20040;-45
2020/12/12 08:45:30;;;;;;;2.00;1.80;;;19.30;40.30;;;;;;5023991;28;20609;-43
2020/12/12 08:48:06;;;;;;;3.10;2.47;;;19.30;40.20;;;;;;5025186;28;20057;-44
2020/12/12 08:50:47;;;;;;;3.17;2.80;;;19.30;40.30;;;;;;5026480;28;20079;-43
2020/12/12 08:53:20;;;;;;;3.65;2.80;;;19.30;40.20;;;;;;5028189;28;20033;-46
2020/12/12 08:56:05;;;;;;;5.15;2.90;;;19.30;40.20;;;;;;5019780;28;20057;-46
2020/12/12 08:58:59;;;;;;;3.88;2.05;;;19.30;40.30;;;;;;5021475;28;20040;-46
2020/12/12 09:01:28;;;;;;;5.22;2.85;;;19.30;40.20;;;;;;5022276;28;20487;-43
2020/12/12 09:03:54;;;;;;;3.70;2.80;;;19.30;40.30;;;;;;5018084;28;20060;-45
2020/12/12 09:06:20;;;;;;;3.92;3.05;;;19.30;40.20;;;;;;5011010;28;20026;-44
2020/12/12 09:08:46;;;;;;;3.22;2.92;;;19.30;40.20;;;;;;5022598;28;20032;-48
2020/12/12 09:11:14;;;;;;;2.60;2.40;;;19.30;40.20;;;;;;5023051;28;20045;-44
2020/12/12 09:13:39;;;;;;;2.90;2.47;;;19.30;40.10;;;;;;5023477;28;20148;-42
2020/12/12 09:16:11;;;;;;;3.40;2.25;;;19.20;40.10;;;;;;5028669;28;20105;-42
2020/12/12 09:18:47;;;;;;;2.40;2.17;;;19.20;40.20;;;;;;5027240;28;20803;-43
2020/12/12 09:21:14;;;;;;;2.45;2.00;;;19.30;40.20;;;;;;5027641;28;20026;-42
2020/12/12 09:23:40;;;;;;;4.35;2.75;;;19.20;40.20;;;;;;5027643;28;20048;-41
2020/12/12 09:26:07;;;;;;;5.80;2.53;;;19.20;40.20;;;;;;5027246;28;20509;-46
2020/12/12 09:28:34;;;;;;;4.55;2.03;;;19.20;40.20;;;;;;5027939;28;20033;-46
2020/12/12 09:31:00;;;;;;;2.55;2.25;;;19.20;40.30;;;;;;5025404;28;20785;-43
2020/12/12 09:33:25;;;;;;;3.50;1.77;;;19.20;40.20;;;;;;5027434;28;20037;-45
2020/12/12 09:35:52;;;;;;;2.63;2.33;;;19.20;40.30;;;;;;5025747;28;20034;-43
2020/12/12 09:38:17;;;;;;;2.50;1.83;;;19.20;40.40;;;;;;5020207;28;20721;-41
2020/12/12 09:40:43;;;;;;;5.32;2.10;;;19.20;40.30;;;;;;5049990;22;20052;-46
2020/12/12 09:43:09;;;;;;;2.80;1.90;;;19.20;40.30;;;;;;5059368;28;20041;-46
2020/12/12 09:45:35;;;;;;;2.38;2.17;;;19.20;40.30;;;;;;5061597;28;20037;-46
2020/12/12 09:48:01;;;;;;;3.38;2.10;;;19.20;40.80;;;;;;5069179;28;20036;-47
2020/12/12 09:50:35;;;;;;;2.47;2.00;;;19.20;40.20;;;;;;5062182;28;20032;-47
2020/12/12 09:53:02;;;;;;;3.17;1.92;;;19.20;40.20;;;;;;5045069;28;20036;-47
2020/12/12 09:55:28;;;;;;;3.10;2.03;;;19.20;40.30;;;;;;5050811;28;20025;-48
2020/12/12 09:57:55;;;;;;;2.50;1.63;;;19.20;40.20;;;;;;5045568;28;20452;-47
2020/12/12 10:00:21;;;;;;;2.13;1.73;;;19.20;40.60;;;;;;5042858;28;20096;-47
2020/12/12 10:02:46;;;;;;;2.67;1.17;;;19.20;40.80;;;;;;5050411;28;20130;-48
2020/12/12 10:05:12;;;;;;;1.63;1.40;;;19.20;40.60;;;;;;5050950;28;21898;-48
2020/12/12 10:07:37;;;;;;;1.65;1.27;;;19.30;40.30;;;;;;5051381;28;20093;-48
2020/12/12 10:10:03;;;;;;;2.08;1.40;;;19.50;40.10;;;;;;5052601;28;20410;-47
2020/12/12 10:12:28;;;;;;;1.77;1.20;;;19.60;39.90;;;;;;5051702;28;20547;-46
2020/12/12 10:14:54;;;;;;;2.13;1.27;;;19.80;39.80;;;;;;5050353;28;20072;-47
2020/12/12 10:17:20;;;;;;;4.05;1.75;;;19.80;39.60;;;;;;5052360;28;20093;-47
2020/12/12 10:19:46;;;;;;;1.45;1.35;;;19.90;39.50;;;;;;5052984;28;20100;-46
2020/12/12 10:22:11;;;;;;;1.65;1.13;;;20.00;39.50;;;;;;5052090;28;20076;-47
2020/12/12 10:24:37;;;;;;;2.13;1.15;;;20.00;39.40;;;;;;5052614;28;20040;-47
2020/12/12 10:27:02;;;;;;;1.30;1.02;;;20.10;39.40;;;;;;5052263;28;20040;-46
2020/12/12 10:29:28;;;;;;;1.17;1.02;;;20.10;39.30;;;;;;5052069;28;20104;-46
2020/12/12 10:31:53;;;;;;;1.02;0.73;;;20.20;39.30;;;;;;5052251;28;20044;-46
2020/12/12 10:34:19;;;;;;;1.85;1.20;;;20.20;39.30;;;;;;5052427;28;20099;-47
2020/12/12 10:36:44;;;;;;;1.75;1.27;;;20.20;39.30;;;;;;5052605;28;20503;-47
2020/12/12 10:39:10;;;;;;;1.88;1.00;;;20.20;39.30;;;;;;5052036;28;20033;-46
2020/12/12 10:41:35;;;;;;;1.50;1.02;;;20.20;39.30;;;;;;5053167;28;20040;-47
2020/12/12 10:44:01;;;;;;;2.70;0.93;;;20.20;39.40;;;;;;5053346;28;20037;-46
2020/12/12 10:46:26;;;;;;;1.60;1.15;;;20.20;39.40;;;;;;5055265;28;20125;-46
2020/12/12 10:48:52;;;;;;;1.65;1.10;;;20.20;39.50;;;;;;5034709;28;20076;-51
2020/12/12 10:51:17;;;;;;;1.40;0.90;;;20.20;39.50;;;;;;5053717;28;20104;-46
2020/12/12 10:53:44;;;;;;;1.55;0.88;;;20.10;39.50;;;;;;5051363;28;20068;-46
2020/12/12 10:56:09;;;;;;;1.63;0.85;;;20.10;39.50;;;;;;5049051;28;20526;-47
2020/12/12 10:58:35;;;;;;;1.55;0.82;;;20.10;39.60;;;;;;5050958;28;20115;-47
2020/12/12 11:01:01;;;;;;;1.50;1.20;;;20.10;39.70;;;;;;5050443;28;20040;-47
2020/12/12 11:03:27;;;;;;;1.90;1.00;;;20.10;39.80;;;;;;5051562;28;20112;-47
2020/12/12 11:05:52;;;;;;;1.65;1.00;;;20.00;40.40;;;;;;5051965;28;20111;-45
2020/12/12 11:08:18;;;;;;;2.63;0.77;;;20.00;39.80;;;;;;5051056;28;20083;-46
2020/12/12 11:10:44;;;;;;;0.93;0.60;;;20.00;39.80;;;;;;5046651;28;20036;-46
2020/12/12 11:13:09;;;;;;;2.10;1.00;;;20.00;39.90;;;;;;5045582;28;20458;-47
2020/12/12 11:15:38;;;;;;;1.23;1.00;;;19.90;39.90;;;;;;5041911;28;20554;-46
2020/12/12 11:18:04;;;;;;;1.00;0.50;;;19.90;40.00;;;;;;5047367;28;20025;-46
2020/12/12 11:20:29;;;;;;;1.85;0.43;;;19.90;40.10;;;;;;5047258;28;20155;-46
2020/12/12 11:22:55;;;;;;;0.82;0.57;;;19.90;40.10;;;;;;5043306;28;20044;-46
2020/12/12 11:25:21;;;;;;;1.30;0.90;;;19.90;40.10;;;;;;5041091;28;20095;-46
2020/12/12 11:27:47;;;;;;;0.98;0.45;;;19.80;40.10;;;;;;5045847;28;20683;-45
2020/12/12 11:30:12;;;;;;;2.78;0.82;;;19.90;40.30;;;;;;5050067;28;20271;-45
2020/12/12 11:32:39;;;;;;;0.98;0.50;;;19.90;40.30;;;;;;5057852;28;20651;-45
2020/12/12 11:35:31;;;;;;;2.17;0.70;;;19.80;41.00;;;;;;5049578;28;20025;-49
2020/12/12 11:40:38;;;;;;;1.70;1.13;;;19.80;40.60;;;;;;5046715;28;20049;-44
2020/12/12 11:48:12;;;;;;;0.90;0.60;;;19.80;40.60;;;;;;5048976;28;20033;-44
2020/12/12 11:50:38;;;;;;;1.02;0.50;;;19.80;40.60;;;;;;5048956;28;20147;-45
2020/12/12 11:53:04;;;;;;;1.85;0.60;;;19.80;40.60;;;;;;5050073;28;20033;-48
2020/12/12 11:55:29;;;;;;;0.70;0.40;;;19.80;40.70;;;;;;5048845;28;20032;-48
2020/12/12 11:57:55;;;;;;;2.45;0.52;;;19.70;40.60;;;;;;5049800;28;20044;-48
2020/12/12 12:00:21;;;;;;;1.00;0.47;;;19.70;40.70;;;;;;5048716;28;20193;-48
2020/12/12 12:02:47;;;;;;;0.90;0.50;;;19.70;40.70;;;;;;5049646;28;20036;-47
2020/12/12 12:05:13;;;;;;;0.88;0.50;;;19.70;40.60;;;;;;5049400;28;20032;-48
2020/12/12 12:07:43;;;;;;;0.75;0.45;;;19.70;40.60;;;;;;5049306;28;20064;-45
2020/12/12 12:10:27;;;;;;;1.10;0.40;;;19.70;40.50;;;;;;5048845;28;20029;-45
2020/12/12 12:12:53;;;;;;;0.80;0.40;;;19.80;40.60;;;;;;5055371;28;20033;-46
2020/12/12 12:15:18;;;;;;;1.35;0.40;;;19.70;40.50;;;;;;5052756;28;20016;-45
2020/12/12 12:17:44;;;;;;;0.68;0.40;;;19.70;40.60;;;;;;5053854;28;20048;-45
2020/12/12 12:20:10;;;;;;;1.13;0.50;;;19.70;40.60;;;;;;5047601;28;20025;-51
2020/12/12 12:22:35;;;;;;;0.60;0.40;;;19.70;40.60;;;;;;5038753;28;20068;-44
2020/12/12 12:25:01;;;;;;;0.95;0.57;;;19.70;40.60;;;;;;5030800;28;20029;-46
2020/12/12 12:27:26;;;;;;;0.90;0.50;;;19.70;40.60;;;;;;5048872;28;20063;-45
2020/12/12 12:29:52;;;;;;;0.95;0.40;;;19.70;40.50;;;;;;5049137;28;20075;-46
2020/12/12 12:32:18;;;;;;;1.23;0.40;;;19.70;40.60;;;;;;5048397;28;20053;-45
2020/12/12 12:34:43;;;;;;;1.33;0.70;;;19.70;40.60;;;;;;5036582;28;20052;-45
2020/12/12 12:37:09;;;;;;;0.60;0.30;;;19.70;40.50;;;;;;5042652;28;20096;-45
2020/12/12 12:39:35;;;;;;;0.98;0.40;;;19.70;40.50;;;;;;5048604;28;20085;-46
2020/12/12 12:42:04;;;;;;;1.30;0.50;;;19.70;40.50;;;;;;5049024;28;20442;-43
2020/12/12 12:44:30;;;;;;;0.73;0.43;;;19.70;40.50;;;;;;5047824;28;20091;-46
2020/12/12 12:46:56;;;;;;;1.15;0.47;;;19.70;40.50;;;;;;5048653;28;20529;-45
2020/12/12 12:49:21;;;;;;;1.25;0.50;;;19.70;41.10;;;;;;5047861;28;20112;-47
2020/12/12 12:51:48;;;;;;;1.27;0.43;;;19.70;40.50;;;;;;5048818;28;20629;-44
2020/12/12 12:54:14;;;;;;;0.70;0.30;;;19.70;40.60;;;;;;5048203;28;20032;-44
2020/12/12 12:56:39;;;;;;;1.52;0.40;;;19.70;40.60;;;;;;5048281;28;20029;-44